Time;durP1;ratioP1;P1;durP2;ratioP2;P2;SDS_P1;SDS_P2;PMS_P1;PMS_P2;Temp;Humidity;BMP_temperature;BMP_pressure;BME280_temperature;BME280_humidity;BME280_pressure;Samples;Min_cycle;Max_cycle;Signal;HPM_P1;HPM_P2
2023/09/10 00:00:16;;;;;;;;;;;;;;;20.86;85.71;101637.50;5043751;28;19920;-65
2023/09/10 00:02:41;;;;;;;;;;;;;;;20.87;85.87;101633.97;5044854;28;19921;-65
2023/09/10 00:05:07;;;;;;;;;;;;;;;20.85;85.30;101638.41;5043220;28;20114;-65
2023/09/10 00:07:32;;;;;;;;;;;;;;;20.80;85.37;101638.44;5043348;28;20094;-65
2023/09/10 00:09:58;;;;;;;;;;;;;;;20.78;85.73;101637.56;5036011;28;19917;-64
2023/09/10 00:12:23;;;;;;;;;;;;;;;20.78;85.21;101637.56;5038609;28;19913;-65
2023/09/10 00:14:48;;;;;;;;;;;;;;;20.80;85.37;101643.72;5036868;28;19920;-65
2023/09/10 00:17:13;;;;;;;;;;;;;;;20.80;85.19;101634.91;5039168;28;20229;-65
2023/09/10 00:19:38;;;;;;;;;;;;;;;20.78;85.32;101634.03;5041619;28;19920;-65
2023/09/10 00:22:04;;;;;;;;;;;;;;;20.77;85.63;101633.16;5025404;28;19925;-65
2023/09/10 00:24:29;;;;;;;;;;;;;;;20.78;85.19;101631.38;5043034;28;19936;-65
2023/09/10 00:26:54;;;;;;;;;;;;;;;20.79;85.13;101635.78;5042997;28;20058;-65
2023/09/10 00:29:19;;;;;;;;;;;;;;;20.77;85.01;101633.16;5043895;28;19963;-65
2023/09/10 00:31:44;;;;;;;;;;;;;;;20.77;85.22;101634.91;5035654;28;19913;-64
2023/09/10 00:34:10;;;;;;;;;;;;;;;20.76;84.98;101630.53;5043372;28;19920;-65
2023/09/10 00:36:35;;;;;;;;;;;;;;;20.72;84.93;101628.78;5042683;28;20097;-65
2023/09/10 00:39:00;;;;;;;;;;;;;;;20.71;85.00;101627.91;5025099;28;20063;-65
2023/09/10 00:41:25;;;;;;;;;;;;;;;20.70;84.72;101625.22;5042762;28;19913;-65
2023/09/10 00:43:51;;;;;;;;;;;;;;;20.69;84.70;101621.72;5049402;28;19914;-65
2023/09/10 00:46:17;;;;;;;;;;;;;;;20.66;85.21;101625.25;5025014;28;20197;-65
2023/09/10 00:48:42;;;;;;;;;;;;;;;20.57;84.99;101625.28;5037571;28;19920;-65
2023/09/10 00:51:08;;;;;;;;;;;;;;;20.50;85.61;101620.91;5042829;28;19913;-64
2023/09/10 00:53:33;;;;;;;;;;;;;;;20.44;85.37;101623.59;5043097;28;19920;-64
2023/09/10 00:55:58;;;;;;;;;;;;;;;20.39;85.78;101628.03;5042270;28;20002;-65
2023/09/10 00:58:24;;;;;;;;;;;;;;;20.36;86.33;101633.34;5042368;28;19913;-65
2023/09/10 01:00:49;;;;;;;;;;;;;;;20.36;86.51;101631.56;5041362;28;20025;-65
2023/09/10 01:03:15;;;;;;;;;;;;;;;20.33;86.42;101623.63;5042715;28;20189;-65
2023/09/10 01:05:40;;;;;;;;;;;;;;;20.31;86.38;101628.94;5040205;28;20321;-65
2023/09/10 01:08:06;;;;;;;;;;;;;;;20.30;85.85;101621.88;5036827;28;20139;-64
2023/09/10 01:10:50;;;;;;;;;;;;;;;20.29;86.19;101620.13;5041856;28;19913;-65
2023/09/10 01:13:21;;;;;;;;;;;;;;;20.23;86.41;101628.06;5037515;28;19913;-64
2023/09/10 01:15:51;;;;;;;;;;;;;;;20.15;86.57;101624.59;5038161;28;19925;-65
2023/09/10 01:18:26;;;;;;;;;;;;;;;20.09;86.69;101619.34;5038471;28;20170;-64
2023/09/10 01:21:10;;;;;;;;;;;;;;;20.02;86.67;101618.47;5039238;28;19945;-64
2023/09/10 01:23:42;;;;;;;;;;;;;;;19.98;87.21;101612.28;5039022;28;19958;-64
2023/09/10 01:26:08;;;;;;;;;;;;;;;19.97;87.03;101617.59;5042767;28;19920;-65
2023/09/10 01:28:33;;;;;;;;;;;;;;;19.96;87.40;101623.78;5037298;28;19976;-64
2023/09/10 01:30:58;;;;;;;;;;;;;;;19.94;87.26;101623.78;5042495;28;19951;-64
2023/09/10 01:33:28;;;;;;;;;;;;;;;19.95;87.12;101624.66;5040606;28;19940;-65
2023/09/10 01:35:53;;;;;;;;;;;;;;;19.93;87.64;101626.44;5042147;28;19928;-64
2023/09/10 01:38:22;;;;;;;;;;;;;;;19.91;87.45;101623.78;5041638;28;19913;-64
2023/09/10 01:40:59;;;;;;;;;;;;;;;19.90;87.54;101622.03;5023313;28;19964;-65
2023/09/10 01:43:25;;;;;;;;;;;;;;;19.89;87.34;101625.56;5024464;28;19917;-64
2023/09/10 01:45:50;;;;;;;;;;;;;;;19.87;87.30;101619.41;5041711;28;19956;-64
2023/09/10 01:48:15;;;;;;;;;;;;;;;19.88;87.63;101618.50;5037994;28;20248;-64
2023/09/10 01:50:41;;;;;;;;;;;;;;;19.90;87.70;101632.63;5041775;28;19925;-64
2023/09/10 01:53:06;;;;;;;;;;;;;;;19.90;87.29;101631.72;5041090;28;19929;-64
2023/09/10 01:55:31;;;;;;;;;;;;;;;19.90;87.32;101629.06;5041772;28;19940;-64
2023/09/10 01:57:56;;;;;;;;;;;;;;;19.89;87.56;101633.50;5041441;28;19944;-64
2023/09/10 02:00:22;;;;;;;;;;;;;;;19.87;87.55;101629.97;5041602;28;19980;-64
2023/09/10 02:02:47;;;;;;;;;;;;;;;19.87;87.85;101637.00;5031786;28;19913;-64
2023/09/10 02:05:12;;;;;;;;;;;;;;;19.86;87.55;101640.56;5037137;28;20102;-64
2023/09/10 02:07:38;;;;;;;;;;;;;;;19.82;87.70;101630.88;5041852;28;19935;-64
2023/09/10 02:10:03;;;;;;;;;;;;;;;19.79;88.04;101637.03;5041640;28;19917;-64
2023/09/10 02:12:28;;;;;;;;;;;;;;;19.79;87.96;101644.97;5035889;28;20649;-64
2023/09/10 02:14:55;;;;;;;;;;;;;;;19.78;87.77;101635.25;5041405;28;19944;-64
2023/09/10 02:17:20;;;;;;;;;;;;;;;19.77;87.86;101638.78;5042785;28;19931;-64
2023/09/10 02:19:45;;;;;;;;;;;;;;;19.74;87.72;101638.75;5045659;28;19956;-64
2023/09/10 02:22:10;;;;;;;;;;;;;;;19.72;87.88;101641.41;5045438;28;19920;-64
2023/09/10 02:24:35;;;;;;;;;;;;;;;19.72;88.11;101641.41;5045397;28;19913;-64
2023/09/10 02:27:01;;;;;;;;;;;;;;;19.71;87.83;101639.69;5042068;28;19947;-64
2023/09/10 02:29:26;;;;;;;;;;;;;;;19.70;87.94;101639.69;5044486;28;21071;-64
2023/09/10 02:31:51;;;;;;;;;;;;;;;19.67;87.87;101639.66;5041639;28;19913;-64
2023/09/10 02:34:16;;;;;;;;;;;;;;;19.64;88.13;101643.22;5045480;28;19914;-64
2023/09/10 02:36:41;;;;;;;;;;;;;;;19.61;87.98;101641.44;5045392;28;19913;-64
2023/09/10 02:39:07;;;;;;;;;;;;;;;19.61;88.31;101645.84;5044282;28;19952;-64
2023/09/10 02:41:32;;;;;;;;;;;;;;;19.58;87.82;101641.47;5043519;28;19913;-64
2023/09/10 02:43:57;;;;;;;;;;;;;;;19.59;87.99;101643.19;5040873;28;19913;-64
2023/09/10 02:46:23;;;;;;;;;;;;;;;19.59;88.29;101637.91;5040078;28;20171;-64
2023/09/10 02:48:48;;;;;;;;;;;;;;;19.57;88.46;101638.81;5045199;28;20063;-64
2023/09/10 02:51:14;;;;;;;;;;;;;;;19.54;88.43;101631.75;5044474;28;20191;-64
2023/09/10 02:53:39;;;;;;;;;;;;;;;19.50;88.52;101642.34;5045338;28;19972;-64
2023/09/10 02:56:04;;;;;;;;;;;;;;;19.46;88.66;101639.72;5045494;28;20058;-64
2023/09/10 02:58:29;;;;;;;;;;;;;;;19.47;88.87;101643.22;5038892;28;19920;-64
2023/09/10 03:00:55;;;;;;;;;;;;;;;19.47;88.65;101637.94;5042450;28;19981;-64
2023/09/10 03:03:20;;;;;;;;;;;;;;;19.47;88.66;101637.94;5045470;28;19913;-64
2023/09/10 03:05:46;;;;;;;;;;;;;;;19.46;88.69;101638.81;5036752;28;19914;-64
2023/09/10 03:08:11;;;;;;;;;;;;;;;19.45;88.85;101642.31;5041861;28;19933;-64
2023/09/10 03:10:36;;;;;;;;;;;;;;;19.43;88.41;101644.09;5039596;28;19913;-64
2023/09/10 03:13:01;;;;;;;;;;;;;;;19.40;88.12;101637.03;5044025;28;19913;-64
2023/09/10 03:15:27;;;;;;;;;;;;;;;19.34;88.76;101637.06;5038629;28;20000;-64
2023/09/10 03:17:52;;;;;;;;;;;;;;;19.29;89.09;101630.88;5033788;28;19917;-64
2023/09/10 03:20:17;;;;;;;;;;;;;;;19.26;89.74;101639.72;5044315;28;19931;-64
2023/09/10 03:22:42;;;;;;;;;;;;;;;19.24;89.58;101635.28;5040793;28;19920;-64
2023/09/10 03:25:08;;;;;;;;;;;;;;;19.23;89.13;101637.06;5044499;28;20016;-64
2023/09/10 03:27:33;;;;;;;;;;;;;;;19.23;89.79;101636.16;5034627;28;20144;-64
2023/09/10 03:29:59;;;;;;;;;;;;;;;19.20;89.79;101631.75;5044149;28;19932;-64
2023/09/10 03:32:24;;;;;;;;;;;;;;;19.21;89.46;101633.53;5043254;28;19918;-64
2023/09/10 03:34:50;;;;;;;;;;;;;;;19.20;89.88;101626.47;5040488;28;20062;-64
2023/09/10 03:37:15;;;;;;;;;;;;;;;19.20;89.95;101630.88;5037530;28;19913;-64
2023/09/10 03:39:40;;;;;;;;;;;;;;;19.19;89.81;101630.00;5044514;28;19914;-64
2023/09/10 03:42:05;;;;;;;;;;;;;;;19.21;89.72;101628.25;5045345;28;20098;-64
2023/09/10 03:44:31;;;;;;;;;;;;;;;19.21;89.93;101632.66;5043646;28;19945;-64
2023/09/10 03:46:56;;;;;;;;;;;;;;;19.17;89.38;101626.47;5045759;28;19970;-64
2023/09/10 03:49:21;;;;;;;;;;;;;;;19.17;89.73;101630.88;5036842;28;20142;-64
2023/09/10 03:51:51;;;;;;;;;;;;;;;19.12;90.20;101625.59;5043097;28;20086;-64
2023/09/10 03:54:16;;;;;;;;;;;;;;;19.06;90.18;101621.19;5041555;28;19913;-64
2023/09/10 03:56:41;;;;;;;;;;;;;;;19.05;90.38;101621.19;5041852;28;19913;-64
2023/09/10 03:59:07;;;;;;;;;;;;;;;19.05;90.17;101626.47;5034438;28;19948;-64
2023/09/10 04:01:33;;;;;;;;;;;;;;;19.06;90.30;101625.56;5043667;28;19992;-64
2023/09/10 04:03:58;;;;;;;;;;;;;;;19.05;90.47;101615.91;5043585;28;19925;-64
2023/09/10 04:06:23;;;;;;;;;;;;;;;19.04;90.52;101622.06;5036980;28;19920;-64
2023/09/10 04:08:48;;;;;;;;;;;;;;;19.03;90.45;101620.28;5042785;28;20139;-64
2023/09/10 04:11:13;;;;;;;;;;;;;;;19.03;90.49;101615.00;5041430;28;19988;-64
2023/09/10 04:13:39;;;;;;;;;;;;;;;19.03;90.89;101610.63;5042512;28;19963;-64
2023/09/10 04:16:04;;;;;;;;;;;;;;;18.99;90.83;101605.31;5042611;28;19983;-64
2023/09/10 04:18:29;;;;;;;;;;;;;;;18.97;90.76;101615.88;5031352;28;20134;-64
2023/09/10 04:20:54;;;;;;;;;;;;;;;18.94;91.02;101611.50;5037638;28;19925;-64
2023/09/10 04:23:19;;;;;;;;;;;;;;;18.92;91.10;101615.00;5034851;28;19913;-64
2023/09/10 04:25:45;;;;;;;;;;;;;;;18.90;91.05;101616.75;5042184;28;19914;-64
2023/09/10 04:28:10;;;;;;;;;;;;;;;18.88;91.09;101616.75;5041271;28;19913;-64
2023/09/10 04:30:36;;;;;;;;;;;;;;;18.88;91.21;101611.47;5043201;28;19920;-64
2023/09/10 04:33:01;;;;;;;;;;;;;;;18.88;91.13;101608.84;5039992;28;19921;-64
2023/09/10 04:35:27;;;;;;;;;;;;;;;18.86;91.23;101615.88;5039834;28;20095;-64
2023/09/10 04:37:52;;;;;;;;;;;;;;;18.86;91.36;101617.63;5040966;28;19913;-64
2023/09/10 04:40:17;;;;;;;;;;;;;;;18.82;91.13;101618.50;5023701;28;19957;-64
2023/09/10 04:42:42;;;;;;;;;;;;;;;18.79;91.39;101619.34;5037827;28;19976;-64
2023/09/10 04:45:08;;;;;;;;;;;;;;;18.75;91.33;101618.47;5039103;28;19913;-64
2023/09/10 04:47:33;;;;;;;;;;;;;;;18.74;91.58;101621.09;5040403;28;20067;-64
2023/09/10 04:49:58;;;;;;;;;;;;;;;18.74;91.64;101621.09;4980696;28;1742922;-64
2023/09/10 04:52:24;;;;;;;;;;;;;;;18.72;91.75;101618.44;5041080;28;19913;-64
2023/09/10 04:54:49;;;;;;;;;;;;;;;18.70;91.73;101617.59;5033570;28;19929;-64
2023/09/10 04:57:14;;;;;;;;;;;;;;;18.69;92.09;101614.94;5042609;28;19913;-64
2023/09/10 04:59:39;;;;;;;;;;;;;;;18.66;92.13;101620.22;5042798;28;19955;-64
2023/09/10 05:02:05;;;;;;;;;;;;;;;18.65;92.06;101623.72;5035714;28;19920;-64
2023/09/10 05:04:30;;;;;;;;;;;;;;;18.66;92.21;101621.09;5043267;28;19919;-64
2023/09/10 05:06:55;;;;;;;;;;;;;;;18.65;92.13;101627.22;5037926;28;20151;-64
2023/09/10 05:09:20;;;;;;;;;;;;;;;18.66;92.31;101628.13;5042293;28;21351;-64
2023/09/10 05:11:45;;;;;;;;;;;;;;;18.67;92.46;101627.25;5042190;28;19917;-64
2023/09/10 05:14:11;;;;;;;;;;;;;;;18.67;92.65;101635.16;5034202;28;19929;-64
2023/09/10 05:16:36;;;;;;;;;;;;;;;18.68;92.40;101636.94;5043412;28;19991;-64
2023/09/10 05:19:01;;;;;;;;;;;;;;;18.68;92.43;101631.66;5042505;28;19913;-64
2023/09/10 05:21:26;;;;;;;;;;;;;;;18.68;92.62;101634.28;5037280;28;19925;-64
2023/09/10 05:23:52;;;;;;;;;;;;;;;18.69;92.43;101636.94;5034336;28;19984;-64
2023/09/10 05:26:17;;;;;;;;;;;;;;;18.71;92.47;101629.00;5039775;28;19963;-64
2023/09/10 05:28:42;;;;;;;;;;;;;;;18.73;92.50;101629.91;5042226;28;20058;-64
2023/09/10 05:31:08;;;;;;;;;;;;;;;18.74;92.45;101639.56;5042923;28;19912;-64
2023/09/10 05:33:34;;;;;;;;;;;;;;;18.71;92.55;101634.28;5042247;28;19914;-64
2023/09/10 05:35:59;;;;;;;;;;;;;;;18.70;92.60;101638.69;5040078;28;19924;-64
2023/09/10 05:38:25;;;;;;;;;;;;;;;18.68;93.12;101635.16;5042514;28;19913;-64
2023/09/10 05:40:50;;;;;;;;;;;;;;;18.69;93.20;101633.41;5042041;28;19913;-64
2023/09/10 05:43:16;;;;;;;;;;;;;;;18.69;93.18;101643.97;5041017;28;20185;-64
2023/09/10 05:45:41;;;;;;;;;;;;;;;18.69;92.79;101642.22;5038199;28;19959;-64
2023/09/10 05:48:06;;;;;;;;;;;;;;;18.69;93.13;101638.69;5038029;28;19953;-63
2023/09/10 05:50:31;;;;;;;;;;;;;;;18.69;93.18;101636.06;5040104;28;19930;-64
2023/09/10 05:52:57;;;;;;;;;;;;;;;18.71;93.18;101635.19;5039801;28;19929;-64
2023/09/10 05:55:23;;;;;;;;;;;;;;;18.70;93.39;101643.13;5040995;28;19984;-64
2023/09/10 05:57:49;;;;;;;;;;;;;;;18.69;93.33;101641.34;5036549;28;20162;-64
2023/09/10 06:00:14;;;;;;;;;;;;;;;18.69;93.73;101651.91;5040917;28;19914;-64
2023/09/10 06:02:40;;;;;;;;;;;;;;;18.68;93.76;101647.50;5039360;28;19914;-64
2023/09/10 06:05:05;;;;;;;;;;;;;;;18.70;93.67;101651.03;5042416;28;19929;-64
2023/09/10 06:07:30;;;;;;;;;;;;;;;18.70;93.73;101654.53;5041402;28;19937;-64
2023/09/10 06:09:55;;;;;;;;;;;;;;;18.73;94.14;101651.03;5037374;28;19914;-64
2023/09/10 06:12:21;;;;;;;;;;;;;;;18.74;94.07;101658.97;5041842;28;19917;-64
2023/09/10 06:14:46;;;;;;;;;;;;;;;18.77;94.35;101660.72;5041701;28;19921;-64
2023/09/10 06:17:11;;;;;;;;;;;;;;;18.80;94.42;101666.03;5042565;28;19925;-64
2023/09/10 06:19:36;;;;;;;;;;;;;;;18.83;94.17;101665.13;5039976;28;19948;-64
2023/09/10 06:22:01;;;;;;;;;;;;;;;18.84;94.08;101667.78;5039581;28;19913;-64
2023/09/10 06:24:26;;;;;;;;;;;;;;;18.86;94.25;101659.88;5034019;28;19959;-64
2023/09/10 06:26:52;;;;;;;;;;;;;;;18.89;94.40;101663.41;5041582;28;20100;-64
2023/09/10 06:29:17;;;;;;;;;;;;;;;18.92;94.29;101666.06;5038735;28;19940;-64
2023/09/10 06:31:42;;;;;;;;;;;;;;;18.96;94.63;101672.25;5039214;28;19936;-64
2023/09/10 06:34:07;;;;;;;;;;;;;;;19.00;94.47;101667.84;5039681;28;19921;-64
2023/09/10 06:36:33;;;;;;;;;;;;;;;19.04;94.88;101674.91;5040954;28;19920;-64
2023/09/10 06:38:58;;;;;;;;;;;;;;;19.06;95.03;101670.47;5039817;28;19913;-64
2023/09/10 06:41:23;;;;;;;;;;;;;;;19.09;95.27;101670.50;5039113;28;19991;-64
2023/09/10 06:43:48;;;;;;;;;;;;;;;19.13;95.01;101674.03;5032809;28;19913;-64
2023/09/10 06:46:13;;;;;;;;;;;;;;;19.16;95.36;101672.28;5041052;28;20173;-64
2023/09/10 06:48:38;;;;;;;;;;;;;;;19.20;95.46;101674.03;5040840;28;19913;-64
2023/09/10 06:51:04;;;;;;;;;;;;;;;19.22;95.33;101672.28;5040924;28;20177;-64
2023/09/10 06:53:29;;;;;;;;;;;;;;;19.24;96.08;101672.28;5030884;28;19914;-64
2023/09/10 06:55:55;;;;;;;;;;;;;;;19.25;96.49;101674.94;5041210;28;19920;-64
2023/09/10 06:58:20;;;;;;;;;;;;;;;19.27;96.66;101667.00;5041201;28;19944;-64
2023/09/10 07:00:45;;;;;;;;;;;;;;;19.32;96.68;101682.84;5039330;28;19940;-64
2023/09/10 07:03:13;;;;;;;;;;;;;;;19.34;96.24;101681.09;5043716;28;19913;-64
2023/09/10 07:05:38;;;;;;;;;;;;;;;19.38;97.07;101678.47;5043729;28;19987;-64
2023/09/10 07:08:03;;;;;;;;;;;;;;;19.45;97.46;101677.59;5045361;28;19917;-64
2023/09/10 07:10:29;;;;;;;;;;;;;;;19.52;97.35;101683.72;5045066;28;20151;-64
2023/09/10 07:12:54;;;;;;;;;;;;;;;19.58;97.67;101678.47;5036644;28;19925;-64
2023/09/10 07:15:19;;;;;;;;;;;;;;;19.66;97.49;101680.22;5026891;28;19919;-64
2023/09/10 07:17:44;;;;;;;;;;;;;;;19.72;97.81;101685.50;5043718;28;19932;-64
2023/09/10 07:20:11;;;;;;;;;;;;;;;19.79;97.95;101680.22;5039836;28;19918;-64
2023/09/10 07:22:36;;;;;;;;;;;;;;;19.86;97.88;101689.03;5040377;28;19920;-64
2023/09/10 07:25:01;;;;;;;;;;;;;;;19.92;97.65;101678.44;5036880;28;19920;-64
2023/09/10 07:27:26;;;;;;;;;;;;;;;20.00;98.29;101685.50;5042383;28;19924;-64
2023/09/10 07:29:51;;;;;;;;;;;;;;;20.06;97.53;101682.81;5027461;28;19917;-64
2023/09/10 07:32:17;;;;;;;;;;;;;;;20.13;98.50;101688.13;5043306;28;20175;-64
2023/09/10 07:34:42;;;;;;;;;;;;;;;20.22;98.25;101684.56;5044752;28;20142;-64
2023/09/10 07:37:07;;;;;;;;;;;;;;;20.29;99.26;101681.00;5042944;28;19936;-64
2023/09/10 07:39:32;;;;;;;;;;;;;;;20.35;99.19;101688.06;5044084;28;20134;-64
2023/09/10 07:41:58;;;;;;;;;;;;;;;20.42;98.40;101684.50;5043627;28;20155;-64
2023/09/10 07:44:23;;;;;;;;;;;;;;;20.51;98.00;101683.56;5042218;28;19936;-64
2023/09/10 07:46:48;;;;;;;;;;;;;;;20.62;99.25;101681.75;5041080;28;19913;-64
2023/09/10 07:49:13;;;;;;;;;;;;;;;20.72;99.39;101676.44;5041490;28;19945;-64
2023/09/10 07:51:38;;;;;;;;;;;;;;;20.82;99.28;101681.66;5038422;28;19923;-64
2023/09/10 07:54:04;;;;;;;;;;;;;;;20.93;99.75;101683.38;5043466;28;20052;-64
2023/09/10 07:56:29;;;;;;;;;;;;;;;21.04;99.65;101689.50;5041450;28;19913;-64
2023/09/10 07:58:54;;;;;;;;;;;;;;;21.13;99.49;101685.91;5040768;28;20155;-64
2023/09/10 08:01:19;;;;;;;;;;;;;;;21.26;100.00;101694.66;5041059;28;19926;-64
2023/09/10 08:03:44;;;;;;;;;;;;;;;21.40;99.78;101691.91;5037487;28;19917;-64
2023/09/10 08:06:10;;;;;;;;;;;;;;;21.55;98.58;101694.44;5042239;28;20059;-64
2023/09/10 08:08:35;;;;;;;;;;;;;;;21.65;98.70;101692.59;5039162;28;19913;-64
2023/09/10 08:11:00;;;;;;;;;;;;;;;21.79;97.89;101697.78;5040287;28;19913;-65
2023/09/10 08:13:25;;;;;;;;;;;;;;;21.94;98.24;101705.63;5032898;28;20202;-64
2023/09/10 08:15:50;;;;;;;;;;;;;;;22.11;97.42;101702.75;5041120;28;19913;-65
2023/09/10 08:18:16;;;;;;;;;;;;;;;22.21;98.44;101703.53;5044716;28;19909;-65
2023/09/10 08:20:42;;;;;;;;;;;;;;;22.33;97.79;101695.50;5043093;28;19921;-65
2023/09/10 08:23:07;;;;;;;;;;;;;;;22.49;95.68;101704.16;5044487;28;19916;-65
2023/09/10 08:25:33;;;;;;;;;;;;;;;22.62;96.73;101698.66;5043308;28;19925;-66
2023/09/10 08:27:59;;;;;;;;;;;;;;;22.75;96.25;101693.19;5039563;28;20117;-66
2023/09/10 08:30:24;;;;;;;;;;;;;;;22.92;96.31;101690.25;5036864;28;19960;-67
2023/09/10 08:32:50;;;;;;;;;;;;;;;23.09;95.51;101684.72;5045062;28;19917;-67
2023/09/10 08:35:17;;;;;;;;;;;;;;;23.27;95.03;101680.94;5043807;28;20059;-66
2023/09/10 08:37:42;;;;;;;;;;;;;;;23.45;94.14;101678.88;5037373;28;19940;-66
2023/09/10 08:40:08;;;;;;;;;;;;;;;23.61;94.09;101676.81;5037025;28;19913;-67
2023/09/10 08:42:37;;;;;;;;;;;;;;;23.80;94.21;101680.03;5044443;28;20152;-66
2023/09/10 08:45:05;;;;;;;;;;;;;;;23.96;92.95;101689.50;5040727;28;20138;-66
2023/09/10 08:47:36;;;;;;;;;;;;;;;24.12;92.47;101686.56;5041986;28;20166;-66
2023/09/10 08:50:06;;;;;;;;;;;;;;;24.29;91.47;101686.22;5037373;28;19936;-67
2023/09/10 08:52:32;;;;;;;;;;;;;;;24.41;92.06;101691.28;5039057;28;20155;-66
2023/09/10 08:54:58;;;;;;;;;;;;;;;24.56;89.61;101691.88;5050911;28;19913;-67
2023/09/10 08:57:23;;;;;;;;;;;;;;;24.70;90.25;101688.97;5043054;28;19955;-67
2023/09/10 08:59:50;;;;;;;;;;;;;;;24.86;90.12;101681.50;5046096;28;20301;-64
2023/09/10 09:02:15;;;;;;;;;;;;;;;25.07;90.46;101683.66;5046214;28;19919;-65
2023/09/10 09:04:41;;;;;;;;;;;;;;;25.26;89.07;101685.88;5041198;28;19956;-65
2023/09/10 09:07:09;;;;;;;;;;;;;;;25.42;87.84;101687.28;5045864;28;19920;-65
2023/09/10 09:09:39;;;;;;;;;;;;;;;25.55;85.89;101692.31;5050200;28;19920;-66
2023/09/10 09:12:06;;;;;;;;;;;;;;;25.63;85.85;101685.00;5052799;28;19967;-66
2023/09/10 09:14:31;;;;;;;;;;;;;;;25.78;85.95;101683.69;5044691;28;19984;-64
2023/09/10 09:16:57;;;;;;;;;;;;;;;25.91;84.71;101687.81;5047134;28;19940;-64
2023/09/10 09:19:22;;;;;;;;;;;;;;;26.01;81.74;101680.44;5039977;28;19913;-65
2023/09/10 09:21:49;;;;;;;;;;;;;;;26.14;82.25;101681.88;5040535;28;19963;-65
2023/09/10 09:24:14;;;;;;;;;;;;;;;26.22;78.65;101680.78;5035780;28;19925;-65
2023/09/10 09:26:41;;;;;;;;;;;;;;;26.32;81.27;101671.56;5044616;28;19957;-65
2023/09/10 09:29:07;;;;;;;;;;;;;;;26.51;80.66;101675.44;5046443;28;19913;-67
2023/09/10 09:31:32;;;;;;;;;;;;;;;26.70;80.50;101680.25;5040246;28;19984;-64
2023/09/10 09:33:57;;;;;;;;;;;;;;;26.82;81.08;101676.31;5040884;28;19913;-66
2023/09/10 09:36:27;;;;;;;;;;;;;;;26.93;80.66;101670.66;5041654;28;19921;-68
2023/09/10 09:38:52;;;;;;;;;;;;;;;27.07;79.04;101668.41;5043141;28;19981;-66
2023/09/10 09:41:17;;;;;;;;;;;;;;;27.16;77.55;101667.22;5043656;28;19917;-66
2023/09/10 09:43:43;;;;;;;;;;;;;;;27.35;77.57;101664.84;5042455;28;19909;-66
2023/09/10 09:46:08;;;;;;;;;;;;;;;27.54;78.79;101668.63;5043075;28;19913;-67
2023/09/10 09:48:34;;;;;;;;;;;;;;;27.61;75.47;101660.41;5051022;28;19921;-67
2023/09/10 09:51:01;;;;;;;;;;;;;;;27.59;76.61;101660.44;5043443;28;20220;-67
2023/09/10 09:53:27;;;;;;;;;;;;;;;27.67;77.94;101658.38;5025667;28;20043;-66
2023/09/10 09:55:56;;;;;;;;;;;;;;;27.84;76.84;101659.59;5042804;28;19913;-65
2023/09/10 09:58:21;;;;;;;;;;;;;;;28.03;76.65;101649.09;5041286;28;19999;-66
2023/09/10 10:00:46;;;;;;;;;;;;;;;28.15;76.31;101658.50;5040049;28;19920;-66
2023/09/10 10:03:11;;;;;;;;;;;;;;;28.28;74.90;101651.72;5041018;28;19909;-66
2023/09/10 10:05:37;;;;;;;;;;;;;;;28.43;75.05;101655.63;5048741;28;19913;-66
2023/09/10 10:08:03;;;;;;;;;;;;;;;28.53;75.21;101651.69;5048979;28;19920;-67
2023/09/10 10:10:28;;;;;;;;;;;;;;;28.63;74.68;101644.16;5044641;28;19960;-66
2023/09/10 10:12:54;;;;;;;;;;;;;;;28.76;70.64;101650.78;5055442;28;19913;-65
2023/09/10 10:15:21;;;;;;;;;;;;;;;28.84;73.47;101642.44;5042932;28;19967;-66
2023/09/10 10:17:47;;;;;;;;;;;;;;;29.00;73.71;101641.81;5039753;28;19927;-65
2023/09/10 10:20:13;;;;;;;;;;;;;;;29.08;73.59;101645.94;5045096;28;19912;-66
2023/09/10 10:22:38;;;;;;;;;;;;;;;29.23;72.22;101638.16;5041703;28;19916;-67
2023/09/10 10:25:04;;;;;;;;;;;;;;;29.35;71.63;101637.66;5043822;28;19931;-67
2023/09/10 10:27:31;;;;;;;;;;;;;;;29.40;72.76;101648.19;5038803;28;19991;-66
2023/09/10 10:29:56;;;;;;;;;;;;;;;29.45;71.61;101640.84;5037033;28;20027;-67
2023/09/10 10:32:27;;;;;;;;;;;;;;;29.58;72.19;101643.84;5038421;28;19917;-67
2023/09/10 10:34:56;;;;;;;;;;;;;;;29.58;72.73;101639.34;5036466;28;19928;-66
2023/09/10 10:37:37;;;;;;;;;;;;;;;29.78;72.06;101640.28;5037695;28;19952;-67
2023/09/10 10:40:11;;;;;;;;;;;;;;;29.89;70.88;101627.25;5040489;28;19928;-65
2023/09/10 10:42:45;;;;;;;;;;;;;;;29.89;70.87;101637.16;5039155;28;19956;-66
2023/09/10 10:45:15;;;;;;;;;;;;;;;29.81;66.27;101634.78;5039147;28;20067;-64
2023/09/10 10:47:41;;;;;;;;;;;;;;;29.75;66.33;101637.72;5042761;28;19920;-67
2023/09/10 10:50:10;;;;;;;;;;;;;;;29.83;70.00;101623.03;5041254;28;19913;-67
2023/09/10 10:52:38;;;;;;;;;;;;;;;29.83;70.26;101627.53;5024991;28;20159;-67
2023/09/10 10:55:04;;;;;;;;;;;;;;;29.87;67.90;101634.53;5046425;28;19917;-67
2023/09/10 10:57:29;;;;;;;;;;;;;;;29.98;65.17;101625.97;5041933;28;19959;-67
2023/09/10 10:59:55;;;;;;;;;;;;;;;30.07;68.16;101625.56;5042595;28;19917;-66
2023/09/10 11:02:24;;;;;;;;;;;;;;;30.01;68.68;101623.16;5023152;28;19933;-66
2023/09/10 11:05:03;;;;;;;;;;;;;;;30.14;67.36;101621.66;5039846;28;20157;-67
2023/09/10 11:07:29;;;;;;;;;;;;;;;30.21;62.84;101619.53;5041891;28;20154;-67
2023/09/10 11:09:58;;;;;;;;;;;;;;;30.25;62.29;101626.50;5045225;28;19988;-68
2023/09/10 11:12:24;;;;;;;;;;;;;;;30.34;60.45;101618.03;5039670;28;19992;-67
2023/09/10 11:14:58;;;;;;;;;;;;;;;30.33;65.82;101618.97;5038466;28;19913;-67
2023/09/10 11:17:24;;;;;;;;;;;;;;;30.35;66.00;101617.06;5040553;28;19963;-67
2023/09/10 11:19:49;;;;;;;;;;;;;;;30.41;66.01;101606.97;5038841;28;19953;-68
2023/09/10 11:22:15;;;;;;;;;;;;;;;30.44;66.76;101612.22;5043736;28;20074;-66
2023/09/10 11:24:40;;;;;;;;;;;;;;;30.41;61.65;101610.53;5041744;28;19936;-66
2023/09/10 11:27:20;;;;;;;;;;;;;;;30.33;65.58;101610.03;5036521;28;20101;-66
2023/09/10 11:30:02;;;;;;;;;;;;;;;30.33;64.31;101618.09;5041578;28;20304;-67
2023/09/10 11:32:27;;;;;;;;;;;;;;;30.46;65.12;101616.59;5040903;28;19913;-66
2023/09/10 11:35:12;;;;;;;;;;;;;;;30.66;64.22;101612.94;5040194;28;19947;-66
2023/09/10 11:37:38;;;;;;;;;;;;;;;30.70;64.18;101613.66;5038646;28;20186;-66
2023/09/10 11:40:03;;;;;;;;;;;;;;;30.96;65.13;101604.28;5040426;28;19925;-66
2023/09/10 11:42:28;;;;;;;;;;;;;;;31.14;64.44;101601.63;5039833;28;19917;-67
2023/09/10 11:44:55;;;;;;;;;;;;;;;31.22;64.47;101599.41;5040462;28;19913;-66
2023/09/10 11:47:20;;;;;;;;;;;;;;;31.33;63.61;101610.50;5040615;28;20292;-67
2023/09/10 11:49:45;;;;;;;;;;;;;;;31.41;62.70;101603.84;5039889;28;19913;-67
2023/09/10 11:52:11;;;;;;;;;;;;;;;31.44;63.29;101607.25;5043408;28;19953;-66
2023/09/10 11:54:36;;;;;;;;;;;;;;;31.18;60.39;101603.22;5040324;28;20000;-66
2023/09/10 11:57:03;;;;;;;;;;;;;;;31.06;60.58;101598.47;5042033;28;19921;-66
2023/09/10 11:59:30;;;;;;;;;;;;;;;31.15;60.03;101608.75;5041117;28;19971;-66
2023/09/10 12:01:55;;;;;;;;;;;;;;;31.19;58.50;101605.81;5040494;28;20143;-67
2023/09/10 12:04:30;;;;;;;;;;;;;;;31.18;61.52;101597.84;5040563;28;19913;-67
2023/09/10 12:06:55;;;;;;;;;;;;;;;31.38;60.28;101600.34;5040801;28;20253;-67
2023/09/10 12:09:21;;;;;;;;;;;;;;;31.61;60.83;101601.00;5017062;28;19940;-66
2023/09/10 12:11:47;;;;;;;;;;;;;;;31.91;60.37;101594.94;5040602;28;19972;-66
2023/09/10 12:14:13;;;;;;;;;;;;;;;32.20;61.58;101596.03;5038609;28;19959;-67
2023/09/10 12:16:38;;;;;;;;;;;;;;;32.42;58.11;101598.38;5038615;28;19913;-67
2023/09/10 12:19:04;;;;;;;;;;;;;;;32.63;58.06;101595.41;5037995;28;19929;-67
2023/09/10 12:21:30;;;;;;;;;;;;;;;32.83;58.88;101590.72;5026257;28;19913;-67
2023/09/10 12:23:55;;;;;;;;;;;;;;;32.94;58.33;101585.56;5041805;28;19913;-67
2023/09/10 12:26:21;;;;;;;;;;;;;;;33.01;58.17;101588.75;5039874;28;19913;-67
2023/09/10 12:28:46;;;;;;;;;;;;;;;33.04;57.94;101592.16;5039617;28;19988;-66